sensor_id;sensor_type;location;lat;lon;timestamp;pressure;altitude;pressure_sealevel;temperature
49785;BMP280;35679;38.732;-121.358;2023-07-02T00:01:40;100524.22;;;29.07
49785;BMP280;35679;38.732;-121.358;2023-07-02T00:04:32;100516.03;;;29.12
49785;BMP280;35679;38.732;-121.358;2023-07-02T00:07:22;100516.16;;;29.20
49785;BMP280;35679;38.732;-121.358;2023-07-02T00:10:11;100508.44;;;29.27
49785;BMP280;35679;38.732;-121.358;2023-07-02T00:13:01;100509.94;;;29.38
49785;BMP280;35679;38.732;-121.358;2023-07-02T00:15:51;100504.75;;;29.41
49785;BMP280;35679;38.732;-121.358;2023-07-02T00:18:40;100504.06;;;29.49
49785;BMP280;35679;38.732;-121.358;2023-07-02T00:21:30;100498.91;;;29.48
49785;BMP280;35679;38.732;-121.358;2023-07-02T00:24:22;100503.19;;;29.54
49785;BMP280;35679;38.732;-121.358;2023-07-02T00:27:11;100494.16;;;29.58
49785;BMP280;35679;38.732;-121.358;2023-07-02T00:30:01;100490.53;;;29.63
49785;BMP280;35679;38.732;-121.358;2023-07-02T00:32:50;100491.53;;;29.67
49785;BMP280;35679;38.732;-121.358;2023-07-02T00:35:40;100492.84;;;29.69
49785;BMP280;35679;38.732;-121.358;2023-07-02T00:38:29;100488.44;;;29.73
49785;BMP280;35679;38.732;-121.358;2023-07-02T00:41:19;100479.38;;;29.78
49785;BMP280;35679;38.732;-121.358;2023-07-02T00:44:08;100479.28;;;29.83
49785;BMP280;35679;38.732;-121.358;2023-07-02T00:46:59;100476.78;;;29.86
49785;BMP280;35679;38.732;-121.358;2023-07-02T00:49:49;100476.25;;;29.89
49785;BMP280;35679;38.732;-121.358;2023-07-02T00:52:40;100469.88;;;29.93
49785;BMP280;35679;38.732;-121.358;2023-07-02T00:55:29;100465.44;;;29.97
49785;BMP280;35679;38.732;-121.358;2023-07-02T00:58:19;100467.28;;;30.02
49785;BMP280;35679;38.732;-121.358;2023-07-02T01:01:09;100460.44;;;30.04
49785;BMP280;35679;38.732;-121.358;2023-07-02T01:04:01;100470.13;;;30.10
49785;BMP280;35679;38.732;-121.358;2023-07-02T01:06:51;100460.25;;;30.14
49785;BMP280;35679;38.732;-121.358;2023-07-02T01:09:46;100455.00;;;30.18
49785;BMP280;35679;38.732;-121.358;2023-07-02T01:12:36;100454.91;;;30.23
49785;BMP280;35679;38.732;-121.358;2023-07-02T01:15:27;100444.22;;;30.26
49785;BMP280;35679;38.732;-121.358;2023-07-02T01:18:16;100453.41;;;30.30
49785;BMP280;35679;38.732;-121.358;2023-07-02T01:21:06;100453.59;;;30.34
49785;BMP280;35679;38.732;-121.358;2023-07-02T01:23:56;100455.44;;;30.38
49785;BMP280;35679;38.732;-121.358;2023-07-02T01:26:45;100455.13;;;30.40
49785;BMP280;35679;38.732;-121.358;2023-07-02T01:29:36;100448.78;;;30.44
49785;BMP280;35679;38.732;-121.358;2023-07-02T01:32:26;100448.97;;;30.48
49785;BMP280;35679;38.732;-121.358;2023-07-02T01:35:16;100450.59;;;30.49
49785;BMP280;35679;38.732;-121.358;2023-07-02T01:38:06;100451.22;;;30.46
49785;BMP280;35679;38.732;-121.358;2023-07-02T01:40:55;100452.81;;;30.47
49785;BMP280;35679;38.732;-121.358;2023-07-02T01:43:45;100452.81;;;30.47
49785;BMP280;35679;38.732;-121.358;2023-07-02T01:46:34;100450.59;;;30.49
49785;BMP280;35679;38.732;-121.358;2023-07-02T01:49:24;100451.13;;;30.51
49785;BMP280;35679;38.732;-121.358;2023-07-02T01:52:13;100450.81;;;30.52
49785;BMP280;35679;38.732;-121.358;2023-07-02T01:55:03;100452.00;;;30.59
49785;BMP280;35679;38.732;-121.358;2023-07-02T01:57:53;100447.34;;;30.60
49785;BMP280;35679;38.732;-121.358;2023-07-02T02:00:42;100444.94;;;30.58
49785;BMP280;35679;38.732;-121.358;2023-07-02T02:03:32;100437.78;;;30.62
49785;BMP280;35679;38.732;-121.358;2023-07-02T02:06:22;100439.91;;;30.65
49785;BMP280;35679;38.732;-121.358;2023-07-02T02:09:11;100436.34;;;30.65
49785;BMP280;35679;38.732;-121.358;2023-07-02T02:12:01;100432.22;;;30.67
49785;BMP280;35679;38.732;-121.358;2023-07-02T02:14:50;100432.72;;;30.69
49785;BMP280;35679;38.732;-121.358;2023-07-02T02:17:40;100429.69;;;30.71
49785;BMP280;35679;38.732;-121.358;2023-07-02T02:20:30;100426.69;;;30.72
49785;BMP280;35679;38.732;-121.358;2023-07-02T02:23:19;100426.97;;;30.71
49785;BMP280;35679;38.732;-121.358;2023-07-02T02:26:10;100433.25;;;30.71
49785;BMP280;35679;38.732;-121.358;2023-07-02T02:29:01;100422.34;;;30.71
49785;BMP280;35679;38.732;-121.358;2023-07-02T02:31:51;100429.09;;;30.74
49785;BMP280;35679;38.732;-121.358;2023-07-02T02:34:40;100435.13;;;30.71
49785;BMP280;35679;38.732;-121.358;2023-07-02T02:37:30;100431.81;;;30.74
49785;BMP280;35679;38.732;-121.358;2023-07-02T02:40:21;100422.81;;;30.73
49785;BMP280;35679;38.732;-121.358;2023-07-02T02:43:10;100432.63;;;30.74
49785;BMP280;35679;38.732;-121.358;2023-07-02T02:46:00;100426.25;;;30.79
49785;BMP280;35679;38.732;-121.358;2023-07-02T02:48:50;100425.75;;;30.77
49785;BMP280;35679;38.732;-121.358;2023-07-02T02:51:40;100427.69;;;30.76
49785;BMP280;35679;38.732;-121.358;2023-07-02T02:54:29;100419.50;;;30.76
49785;BMP280;35679;38.732;-121.358;2023-07-02T02:57:19;100421.13;;;30.77
49785;BMP280;35679;38.732;-121.358;2023-07-02T03:00:09;100423.84;;;30.77
49785;BMP280;35679;38.732;-121.358;2023-07-02T03:03:00;100414.84;;;30.77
49785;BMP280;35679;38.732;-121.358;2023-07-02T03:05:51;100430.59;;;30.80
49785;BMP280;35679;38.732;-121.358;2023-07-02T03:08:40;100432.19;;;30.81
49785;BMP280;35679;38.732;-121.358;2023-07-02T03:11:30;100434.63;;;30.82
49785;BMP280;35679;38.732;-121.358;2023-07-02T03:14:20;100428.69;;;30.80
49785;BMP280;35679;38.732;-121.358;2023-07-02T03:17:09;100428.56;;;30.85
49785;BMP280;35679;38.732;-121.358;2023-07-02T03:19:59;100427.75;;;30.85
49785;BMP280;35679;38.732;-121.358;2023-07-02T03:22:48;100427.75;;;30.85
49785;BMP280;35679;38.732;-121.358;2023-07-02T03:25:38;100424.72;;;30.86
49785;BMP280;35679;38.732;-121.358;2023-07-02T03:28:27;100428.25;;;30.87
49785;BMP280;35679;38.732;-121.358;2023-07-02T03:31:16;100433.69;;;30.87
49785;BMP280;35679;38.732;-121.358;2023-07-02T03:34:08;100431.28;;;30.85
49785;BMP280;35679;38.732;-121.358;2023-07-02T03:37:02;100428.56;;;30.85
49785;BMP280;35679;38.732;-121.358;2023-07-02T03:39:51;100430.50;;;30.85
49785;BMP280;35679;38.732;-121.358;2023-07-02T03:42:42;100432.69;;;30.83
49785;BMP280;35679;38.732;-121.358;2023-07-02T03:45:32;100433.50;;;30.83
49785;BMP280;35679;38.732;-121.358;2023-07-02T03:48:21;100434.00;;;30.85
49785;BMP280;35679;38.732;-121.358;2023-07-02T03:51:11;100438.66;;;30.85
49785;BMP280;35679;38.732;-121.358;2023-07-02T03:54:03;100438.94;;;30.83
49785;BMP280;35679;38.732;-121.358;2023-07-02T03:56:53;100446.63;;;30.81
49785;BMP280;35679;38.732;-121.358;2023-07-02T03:59:42;100449.38;;;30.81
49785;BMP280;35679;38.732;-121.358;2023-07-02T04:02:32;100447.75;;;30.80
49785;BMP280;35679;38.732;-121.358;2023-07-02T04:05:21;100444.50;;;30.78
49785;BMP280;35679;38.732;-121.358;2023-07-02T04:08:11;100450.78;;;30.79
49785;BMP280;35679;38.732;-121.358;2023-07-02T04:11:00;100455.72;;;30.77
49785;BMP280;35679;38.732;-121.358;2023-07-02T04:13:49;100455.72;;;30.77
49785;BMP280;35679;38.732;-121.358;2023-07-02T04:16:39;100461.47;;;30.75
49785;BMP280;35679;38.732;-121.358;2023-07-02T04:19:28;100466.13;;;30.75
49785;BMP280;35679;38.732;-121.358;2023-07-02T04:22:18;100466.41;;;30.73
49785;BMP280;35679;38.732;-121.358;2023-07-02T04:25:08;100464.81;;;30.72
49785;BMP280;35679;38.732;-121.358;2023-07-02T04:28:17;100472.16;;;30.72
49785;BMP280;35679;38.732;-121.358;2023-07-02T04:31:07;100470.56;;;30.71
49785;BMP280;35679;38.732;-121.358;2023-07-02T04:33:57;100484.47;;;30.69
49785;BMP280;35679;38.732;-121.358;2023-07-02T04:36:47;100474.69;;;30.68
49785;BMP280;35679;38.732;-121.358;2023-07-02T04:39:40;100480.13;;;30.68
49785;BMP280;35679;38.732;-121.358;2023-07-02T04:42:29;100483.97;;;30.67
49785;BMP280;35679;38.732;-121.358;2023-07-02T04:45:20;100481.56;;;30.66
49785;BMP280;35679;38.732;-121.358;2023-07-02T04:48:10;100488.09;;;30.65
49785;BMP280;35679;38.732;-121.358;2023-07-02T04:51:00;100489.25;;;30.64
49785;BMP280;35679;38.732;-121.358;2023-07-02T04:53:49;100493.88;;;30.63
49785;BMP280;35679;38.732;-121.358;2023-07-02T04:56:38;100499.31;;;30.63
49785;BMP280;35679;38.732;-121.358;2023-07-02T04:59:28;100506.69;;;30.63
49785;BMP280;35679;38.732;-121.358;2023-07-02T05:02:17;100504.28;;;30.61
49785;BMP280;35679;38.732;-121.358;2023-07-02T05:05:07;100503.44;;;30.61
49785;BMP280;35679;38.732;-121.358;2023-07-02T05:07:56;100508.09;;;30.60
49785;BMP280;35679;38.732;-121.358;2023-07-02T05:10:46;100501.84;;;30.60
49785;BMP280;35679;38.732;-121.358;2023-07-02T05:13:36;100505.69;;;30.59
49785;BMP280;35679;38.732;-121.358;2023-07-02T05:16:26;100502.44;;;30.57
49785;BMP280;35679;38.732;-121.358;2023-07-02T05:19:16;100502.25;;;30.54
49785;BMP280;35679;38.732;-121.358;2023-07-02T05:22:05;100503.88;;;30.55
49785;BMP280;35679;38.732;-121.358;2023-07-02T05:24:54;100505.28;;;30.52
49785;BMP280;35679;38.732;-121.358;2023-07-02T05:27:44;100505.59;;;30.51
49785;BMP280;35679;38.732;-121.358;2023-07-02T05:30:35;100503.16;;;30.49
49785;BMP280;35679;38.732;-121.358;2023-07-02T05:33:24;100511.34;;;30.49
49785;BMP280;35679;38.732;-121.358;2023-07-02T05:36:14;100508.09;;;30.47
49785;BMP280;35679;38.732;-121.358;2023-07-02T05:39:04;100511.63;;;30.48
49785;BMP280;35679;38.732;-121.358;2023-07-02T05:41:53;100508.41;;;30.46
49785;BMP280;35679;38.732;-121.358;2023-07-02T05:44:42;100503.53;;;30.43
49785;BMP280;35679;38.732;-121.358;2023-07-02T05:47:32;100504.63;;;30.42
49785;BMP280;35679;38.732;-121.358;2023-07-02T05:50:21;100499.78;;;30.39
49785;BMP280;35679;38.732;-121.358;2023-07-02T05:53:11;100506.66;;;30.36
49785;BMP280;35679;38.732;-121.358;2023-07-02T05:56:01;100508.06;;;30.34
49785;BMP280;35679;38.732;-121.358;2023-07-02T05:58:52;100509.47;;;30.31
49785;BMP280;35679;38.732;-121.358;2023-07-02T06:01:42;100511.66;;;30.29
49785;BMP280;35679;38.732;-121.358;2023-07-02T06:04:32;100509.25;;;30.28
49785;BMP280;35679;38.732;-121.358;2023-07-02T06:07:22;100505.13;;;30.30
49785;BMP280;35679;38.732;-121.358;2023-07-02T06:10:11;100513.69;;;30.24
49785;BMP280;35679;38.732;-121.358;2023-07-02T06:13:01;100506.31;;;30.24
49785;BMP280;35679;38.732;-121.358;2023-07-02T06:15:50;100513.16;;;30.22
49785;BMP280;35679;38.732;-121.358;2023-07-02T06:18:40;100508.03;;;30.20
49785;BMP280;35679;38.732;-121.358;2023-07-02T06:21:30;100511.84;;;30.19
49785;BMP280;35679;38.732;-121.358;2023-07-02T06:24:19;100508.13;;;30.15
49785;BMP280;35679;38.732;-121.358;2023-07-02T06:27:08;100510.06;;;30.15
49785;BMP280;35679;38.732;-121.358;2023-07-02T06:29:58;100510.31;;;30.13
49785;BMP280;35679;38.732;-121.358;2023-07-02T06:32:47;100505.81;;;30.09
49785;BMP280;35679;38.732;-121.358;2023-07-02T06:35:37;100511.25;;;30.09
49785;BMP280;35679;38.732;-121.358;2023-07-02T06:38:27;100503.09;;;30.09
49785;BMP280;35679;38.732;-121.358;2023-07-02T06:41:16;100513.44;;;30.07
49785;BMP280;35679;38.732;-121.358;2023-07-02T06:44:06;100512.66;;;30.06
49785;BMP280;35679;38.732;-121.358;2023-07-02T06:46:55;100513.22;;;30.03
49785;BMP280;35679;38.732;-121.358;2023-07-02T06:49:45;100512.97;;;30.05
49785;BMP280;35679;38.732;-121.358;2023-07-02T06:52:34;100506.69;;;30.04
49785;BMP280;35679;38.732;-121.358;2023-07-02T06:55:23;100507.00;;;30.03
49785;BMP280;35679;38.732;-121.358;2023-07-02T06:58:13;100512.44;;;30.03
49785;BMP280;35679;38.732;-121.358;2023-07-02T07:01:03;100502.97;;;30.00
49785;BMP280;35679;38.732;-121.358;2023-07-02T07:03:52;100502.75;;;29.97
49785;BMP280;35679;38.732;-121.358;2023-07-02T07:06:42;100506.88;;;29.94
49785;BMP280;35679;38.732;-121.358;2023-07-02T07:09:32;100506.66;;;29.91
49785;BMP280;35679;38.732;-121.358;2023-07-02T07:12:21;100509.69;;;29.89
49785;BMP280;35679;38.732;-121.358;2023-07-02T07:15:10;100505.63;;;29.87
49785;BMP280;35679;38.732;-121.358;2023-07-02T07:18:03;100517.59;;;29.86
49785;BMP280;35679;38.732;-121.358;2023-07-02T07:20:53;100515.19;;;29.85
49785;BMP280;35679;38.732;-121.358;2023-07-02T07:23:42;100505.41;;;29.84
49785;BMP280;35679;38.732;-121.358;2023-07-02T07:26:32;100504.91;;;29.82
49785;BMP280;35679;38.732;-121.358;2023-07-02T07:29:22;100510.63;;;29.80
49785;BMP280;35679;38.732;-121.358;2023-07-02T07:32:12;100498.41;;;29.78
49785;BMP280;35679;38.732;-121.358;2023-07-02T07:35:01;100507.69;;;29.77
49785;BMP280;35679;38.732;-121.358;2023-07-02T07:37:50;100502.25;;;29.77
49785;BMP280;35679;38.732;-121.358;2023-07-02T07:40:40;100501.44;;;29.76
49785;BMP280;35679;38.732;-121.358;2023-07-02T07:43:30;100499.81;;;29.75
49785;BMP280;35679;38.732;-121.358;2023-07-02T07:46:19;100502.06;;;29.73
49785;BMP280;35679;38.732;-121.358;2023-07-02T07:49:13;100507.75;;;29.72
49785;BMP280;35679;38.732;-121.358;2023-07-02T07:52:03;100511.09;;;29.69
49785;BMP280;35679;38.732;-121.358;2023-07-02T07:54:55;100508.69;;;29.67
49785;BMP280;35679;38.732;-121.358;2023-07-02T07:57:45;100507.84;;;29.67
49785;BMP280;35679;38.732;-121.358;2023-07-02T08:00:36;100501.09;;;29.64
49785;BMP280;35679;38.732;-121.358;2023-07-02T08:03:26;100500.59;;;29.62
49785;BMP280;35679;38.732;-121.358;2023-07-02T08:06:16;100484.84;;;29.59
49785;BMP280;35679;38.732;-121.358;2023-07-02T08:09:05;100490.06;;;29.56
49785;BMP280;35679;38.732;-121.358;2023-07-02T08:11:55;100489.28;;;29.55
49785;BMP280;35679;38.732;-121.358;2023-07-02T08:14:44;100489.88;;;29.52
49785;BMP280;35679;38.732;-121.358;2023-07-02T08:17:33;100494.81;;;29.50
49785;BMP280;35679;38.732;-121.358;2023-07-02T08:20:23;100492.09;;;29.50
49785;BMP280;35679;38.732;-121.358;2023-07-02T08:23:12;100494.28;;;29.48
49785;BMP280;35679;38.732;-121.358;2023-07-02T08:26:03;100489.44;;;29.45
49785;BMP280;35679;38.732;-121.358;2023-07-02T08:28:52;100486.72;;;29.45
49785;BMP280;35679;38.732;-121.358;2023-07-02T08:31:42;100492.47;;;29.44
49785;BMP280;35679;38.732;-121.358;2023-07-02T08:34:32;100490.84;;;29.43
49785;BMP280;35679;38.732;-121.358;2023-07-02T08:37:21;100490.63;;;29.39
49785;BMP280;35679;38.732;-121.358;2023-07-02T08:40:20;100487.09;;;29.39
49785;BMP280;35679;38.732;-121.358;2023-07-02T08:43:09;100494.44;;;29.38
49785;BMP280;35679;38.732;-121.358;2023-07-02T08:45:59;100497.16;;;29.38
49785;BMP280;35679;38.732;-121.358;2023-07-02T08:48:48;100493.94;;;29.36
49785;BMP280;35679;38.732;-121.358;2023-07-02T08:51:38;100489.06;;;29.33
49785;BMP280;35679;38.732;-121.358;2023-07-02T08:54:27;100497.22;;;29.33
49785;BMP280;35679;38.732;-121.358;2023-07-02T08:57:17;100498.59;;;29.31
49785;BMP280;35679;38.732;-121.358;2023-07-02T09:00:10;100496.97;;;29.30
49785;BMP280;35679;38.732;-121.358;2023-07-02T09:03:12;100497.28;;;29.28
49785;BMP280;35679;38.732;-121.358;2023-07-02T09:06:01;100498.38;;;29.27
49785;BMP280;35679;38.732;-121.358;2023-07-02T09:08:51;100501.38;;;29.26
49785;BMP280;35679;38.732;-121.358;2023-07-02T09:11:47;100494.34;;;29.25
49785;BMP280;35679;38.732;-121.358;2023-07-02T09:14:38;100487.31;;;29.24
49785;BMP280;35679;38.732;-121.358;2023-07-02T09:17:32;100493.53;;;29.24
49785;BMP280;35679;38.732;-121.358;2023-07-02T09:20:32;100492.22;;;29.22
49785;BMP280;35679;38.732;-121.358;2023-07-02T09:23:22;100484.38;;;29.20
49785;BMP280;35679;38.732;-121.358;2023-07-02T09:26:20;100490.38;;;29.17
49785;BMP280;35679;38.732;-121.358;2023-07-02T09:29:09;100486.06;;;29.17
49785;BMP280;35679;38.732;-121.358;2023-07-02T09:32:01;100484.75;;;29.14
49785;BMP280;35679;38.732;-121.358;2023-07-02T09:34:57;100485.00;;;29.13
49785;BMP280;35679;38.732;-121.358;2023-07-02T09:37:47;100488.03;;;29.11
49785;BMP280;35679;38.732;-121.358;2023-07-02T09:40:45;100488.31;;;29.10
49785;BMP280;35679;38.732;-121.358;2023-07-02T09:43:37;100491.91;;;29.05
49785;BMP280;35679;38.732;-121.358;2023-07-02T09:46:28;100488.09;;;29.06
49785;BMP280;35679;38.732;-121.358;2023-07-02T09:49:20;100482.13;;;29.04
49785;BMP280;35679;38.732;-121.358;2023-07-02T09:52:13;100484.06;;;29.04
49785;BMP280;35679;38.732;-121.358;2023-07-02T09:55:03;100481.34;;;29.04
49785;BMP280;35679;38.732;-121.358;2023-07-02T09:57:53;100473.50;;;29.02
49785;BMP280;35679;38.732;-121.358;2023-07-02T10:00:42;100470.25;;;29.00
49785;BMP280;35679;38.732;-121.358;2023-07-02T10:03:32;100466.22;;;28.98
49785;BMP280;35679;38.732;-121.358;2023-07-02T10:06:24;100465.19;;;28.94
49785;BMP280;35679;38.732;-121.358;2023-07-02T10:09:15;100470.91;;;28.92
49785;BMP280;35679;38.732;-121.358;2023-07-02T10:12:20;100470.22;;;28.82
49785;BMP280;35679;38.732;-121.358;2023-07-02T10:15:24;100468.91;;;28.79
49785;BMP280;35679;38.732;-121.358;2023-07-02T10:18:14;100475.22;;;28.75
49785;BMP280;35679;38.732;-121.358;2023-07-02T10:21:16;100465.19;;;28.70
49785;BMP280;35679;38.732;-121.358;2023-07-02T10:24:13;100466.59;;;28.68
49785;BMP280;35679;38.732;-121.358;2023-07-02T10:27:03;100468.78;;;28.66
49785;BMP280;35679;38.732;-121.358;2023-07-02T10:29:53;100478.53;;;28.67
49785;BMP280;35679;38.732;-121.358;2023-07-02T10:32:42;100475.03;;;28.66
49785;BMP280;35679;38.732;-121.358;2023-07-02T10:35:33;100474.81;;;28.63
49785;BMP280;35679;38.732;-121.358;2023-07-02T10:38:24;100478.59;;;28.62
49785;BMP280;35679;38.732;-121.358;2023-07-02T10:41:28;100478.91;;;28.60
49785;BMP280;35679;38.732;-121.358;2023-07-02T10:44:18;100472.16;;;28.58
49785;BMP280;35679;38.732;-121.358;2023-07-02T10:47:07;100473.53;;;28.55
49785;BMP280;35679;38.732;-121.358;2023-07-02T10:49:57;100462.97;;;28.54
49785;BMP280;35679;38.732;-121.358;2023-07-02T10:52:47;100460.81;;;28.51
49785;BMP280;35679;38.732;-121.358;2023-07-02T10:55:38;100461.91;;;28.50
49785;BMP280;35679;38.732;-121.358;2023-07-02T10:58:28;100465.75;;;28.49
49785;BMP280;35679;38.732;-121.358;2023-07-02T11:01:28;100467.94;;;28.47
49785;BMP280;35679;38.732;-121.358;2023-07-02T11:04:18;100458.19;;;28.46
49785;BMP280;35679;38.732;-121.358;2023-07-02T11:07:09;100459.56;;;28.44
49785;BMP280;35679;38.732;-121.358;2023-07-02T11:09:59;100459.84;;;28.42
49785;BMP280;35679;38.732;-121.358;2023-07-02T11:12:48;100469.63;;;28.43
49785;BMP280;35679;38.732;-121.358;2023-07-02T11:15:37;100466.50;;;28.31
49785;BMP280;35679;38.732;-121.358;2023-07-02T11:18:30;100476.06;;;27.95
49785;BMP280;35679;38.732;-121.358;2023-07-02T11:21:21;100468.41;;;27.74
49785;BMP280;35679;38.732;-121.358;2023-07-02T11:24:10;100474.78;;;27.55
49785;BMP280;35679;38.732;-121.358;2023-07-02T11:27:01;100485.97;;;27.43
49785;BMP280;35679;38.732;-121.358;2023-07-02T11:29:59;100492.41;;;27.14
49785;BMP280;35679;38.732;-121.358;2023-07-02T11:32:53;100494.38;;;26.99
49785;BMP280;35679;38.732;-121.358;2023-07-02T11:35:43;100487.41;;;26.83
49785;BMP280;35679;38.732;-121.358;2023-07-02T11:38:38;100497.72;;;26.76
49785;BMP280;35679;38.732;-121.358;2023-07-02T11:41:39;100500.41;;;26.76
49785;BMP280;35679;38.732;-121.358;2023-07-02T11:44:29;100496.06;;;26.85
49785;BMP280;35679;38.732;-121.358;2023-07-02T11:47:18;100503.16;;;26.66
49785;BMP280;35679;38.732;-121.358;2023-07-02T11:50:08;100495.94;;;26.51
49785;BMP280;35679;38.732;-121.358;2023-07-02T11:53:12;100500.84;;;26.40
49785;BMP280;35679;38.732;-121.358;2023-07-02T11:56:02;100498.66;;;26.22
49785;BMP280;35679;38.732;-121.358;2023-07-02T11:58:51;100496.81;;;26.17
49785;BMP280;35679;38.732;-121.358;2023-07-02T12:01:41;100502.50;;;26.01
49785;BMP280;35679;38.732;-121.358;2023-07-02T12:04:30;100497.09;;;25.96
49785;BMP280;35679;38.732;-121.358;2023-07-02T12:07:20;100507.09;;;25.90
49785;BMP280;35679;38.732;-121.358;2023-07-02T12:10:09;100506.56;;;25.83
49785;BMP280;35679;38.732;-121.358;2023-07-02T12:12:59;100509.81;;;25.76
49785;BMP280;35679;38.732;-121.358;2023-07-02T12:15:48;100518.16;;;25.69
49785;BMP280;35679;38.732;-121.358;2023-07-02T12:18:40;100517.63;;;25.62
49785;BMP280;35679;38.732;-121.358;2023-07-02T12:21:29;100527.34;;;25.48
49785;BMP280;35679;38.732;-121.358;2023-07-02T12:24:19;100529.47;;;25.41
49785;BMP280;35679;38.732;-121.358;2023-07-02T12:27:08;100533.25;;;25.40
49785;BMP280;35679;38.732;-121.358;2023-07-02T12:29:58;100537.59;;;25.36
49785;BMP280;35679;38.732;-121.358;2023-07-02T12:32:48;100536.75;;;25.31
49785;BMP280;35679;38.732;-121.358;2023-07-02T12:35:37;100540.00;;;25.33
49785;BMP280;35679;38.732;-121.358;2023-07-02T12:38:27;100538.63;;;25.30
49785;BMP280;35679;38.732;-121.358;2023-07-02T12:41:16;100539.19;;;25.32
49785;BMP280;35679;38.732;-121.358;2023-07-02T12:44:05;100537.03;;;25.34
49785;BMP280;35679;38.732;-121.358;2023-07-02T12:46:55;100540.00;;;25.28
49785;BMP280;35679;38.732;-121.358;2023-07-02T12:49:44;100543.47;;;25.23
49785;BMP280;35679;38.732;-121.358;2023-07-02T12:52:34;100542.69;;;25.23
49785;BMP280;35679;38.732;-121.358;2023-07-02T12:55:23;100545.09;;;25.24
49785;BMP280;35679;38.732;-121.358;2023-07-02T12:58:12;100544.03;;;25.25
49785;BMP280;35679;38.732;-121.358;2023-07-02T13:01:02;100543.72;;;25.17
49785;BMP280;35679;38.732;-121.358;2023-07-02T13:03:51;100550.41;;;25.00
49785;BMP280;35679;38.732;-121.358;2023-07-02T13:06:41;100539.28;;;24.91
49785;BMP280;35679;38.732;-121.358;2023-07-02T13:09:30;100547.69;;;24.95
49785;BMP280;35679;38.732;-121.358;2023-07-02T13:12:20;100536.00;;;24.84
49785;BMP280;35679;38.732;-121.358;2023-07-02T13:15:10;100538.72;;;24.84
49785;BMP280;35679;38.732;-121.358;2023-07-02T13:18:01;100550.84;;;24.82
49785;BMP280;35679;38.732;-121.358;2023-07-02T13:20:51;100552.41;;;24.68
49785;BMP280;35679;38.732;-121.358;2023-07-02T13:23:40;100552.94;;;24.65
49785;BMP280;35679;38.732;-121.358;2023-07-02T13:26:29;100561.91;;;24.75
49785;BMP280;35679;38.732;-121.358;2023-07-02T13:29:19;100566.53;;;24.85
49785;BMP280;35679;38.732;-121.358;2023-07-02T13:32:08;100578.41;;;24.84
49785;BMP280;35679;38.732;-121.358;2023-07-02T13:34:59;100588.59;;;24.77
49785;BMP280;35679;38.732;-121.358;2023-07-02T13:37:49;100590.22;;;24.73
49785;BMP280;35679;38.732;-121.358;2023-07-02T13:40:38;100592.13;;;24.77
49785;BMP280;35679;38.732;-121.358;2023-07-02T13:43:28;100592.13;;;24.77
49785;BMP280;35679;38.732;-121.358;2023-07-02T13:46:17;100596.47;;;24.78
49785;BMP280;35679;38.732;-121.358;2023-07-02T13:49:07;100594.56;;;24.79
49785;BMP280;35679;38.732;-121.358;2023-07-02T13:51:56;100597.53;;;24.77
49785;BMP280;35679;38.732;-121.358;2023-07-02T13:54:46;100598.34;;;24.78
49785;BMP280;35679;38.732;-121.358;2023-07-02T13:57:35;100593.47;;;24.75
49785;BMP280;35679;38.732;-121.358;2023-07-02T14:00:24;100597.28;;;24.79
49785;BMP280;35679;38.732;-121.358;2023-07-02T14:03:14;100600.28;;;24.87
49785;BMP280;35679;38.732;-121.358;2023-07-02T14:06:04;100590.03;;;24.94
49785;BMP280;35679;38.732;-121.358;2023-07-02T14:08:53;100588.53;;;25.08
49785;BMP280;35679;38.732;-121.358;2023-07-02T14:11:43;100593.94;;;25.13
49785;BMP280;35679;38.732;-121.358;2023-07-02T14:14:32;100596.94;;;25.12
49785;BMP280;35679;38.732;-121.358;2023-07-02T14:17:22;100600.16;;;25.18
49785;BMP280;35679;38.732;-121.358;2023-07-02T14:20:13;100596.97;;;25.21
49785;BMP280;35679;38.732;-121.358;2023-07-02T14:23:03;100595.34;;;25.25
49785;BMP280;35679;38.732;-121.358;2023-07-02T14:25:52;100586.47;;;25.30
49785;BMP280;35679;38.732;-121.358;2023-07-02T14:28:42;100596.47;;;25.39
49785;BMP280;35679;38.732;-121.358;2023-07-02T14:31:31;100596.75;;;25.43
49785;BMP280;35679;38.732;-121.358;2023-07-02T14:34:20;100598.09;;;25.50
49785;BMP280;35679;38.732;-121.358;2023-07-02T14:37:10;100604.34;;;25.56
49785;BMP280;35679;38.732;-121.358;2023-07-02T14:39:59;100606.25;;;25.60
49785;BMP280;35679;38.732;-121.358;2023-07-02T14:42:54;100604.66;;;25.64
49785;BMP280;35679;38.732;-121.358;2023-07-02T14:45:47;100596.81;;;25.73
49785;BMP280;35679;38.732;-121.358;2023-07-02T14:48:37;100614.97;;;25.77
49785;BMP280;35679;38.732;-121.358;2023-07-02T14:51:26;100613.63;;;25.84
49785;BMP280;35679;38.732;-121.358;2023-07-02T14:54:17;100609.03;;;25.90
49785;BMP280;35679;38.732;-121.358;2023-07-02T14:57:06;100609.03;;;26.00
49785;BMP280;35679;38.732;-121.358;2023-07-02T14:59:55;100607.94;;;26.01
49785;BMP280;35679;38.732;-121.358;2023-07-02T15:02:45;100605.00;;;26.07
49785;BMP280;35679;38.732;-121.358;2023-07-02T15:05:34;100610.41;;;26.17
49785;BMP280;35679;38.732;-121.358;2023-07-02T15:08:24;100604.97;;;26.27
49785;BMP280;35679;38.732;-121.358;2023-07-02T15:11:14;100606.31;;;26.35
49785;BMP280;35679;38.732;-121.358;2023-07-02T15:14:04;100606.63;;;26.48
49785;BMP280;35679;38.732;-121.358;2023-07-02T15:16:54;100611.44;;;26.56
49785;BMP280;35679;38.732;-121.358;2023-07-02T15:19:44;100616.84;;;26.61
49785;BMP280;35679;38.732;-121.358;2023-07-02T15:22:33;100619.31;;;26.57
49785;BMP280;35679;38.732;-121.358;2023-07-02T15:25:23;100629.31;;;25.92
49785;BMP280;35679;38.732;-121.358;2023-07-02T15:28:13;100634.63;;;25.63